sensor_id;sensor_type;location;lat;lon;timestamp;temperature;humidity
42803;DHT22;28447;48.682;9.022;2022-12-29T00:01:16;8.30;99.90
42803;DHT22;28447;48.682;9.022;2022-12-29T00:03:45;8.30;99.90
42803;DHT22;28447;48.682;9.022;2022-12-29T00:06:10;8.30;99.90
42803;DHT22;28447;48.682;9.022;2022-12-29T00:08:36;8.40;99.90
42803;DHT22;28447;48.682;9.022;2022-12-29T00:11:20;8.50;99.90
42803;DHT22;28447;48.682;9.022;2022-12-29T00:13:46;8.50;99.90
42803;DHT22;28447;48.682;9.022;2022-12-29T00:16:30;8.50;99.90
42803;DHT22;28447;48.682;9.022;2022-12-29T00:18:57;8.50;99.90
42803;DHT22;28447;48.682;9.022;2022-12-29T00:21:24;8.60;99.90
42803;DHT22;28447;48.682;9.022;2022-12-29T00:24:20;8.60;99.90
42803;DHT22;28447;48.682;9.022;2022-12-29T00:26:58;8.70;99.90
42803;DHT22;28447;48.682;9.022;2022-12-29T00:29:51;8.70;99.90
42803;DHT22;28447;48.682;9.022;2022-12-29T00:32:36;8.70;99.90
42803;DHT22;28447;48.682;9.022;2022-12-29T00:35:29;8.80;99.90
42803;DHT22;28447;48.682;9.022;2022-12-29T00:38:02;8.80;99.90
42803;DHT22;28447;48.682;9.022;2022-12-29T00:40:47;8.80;99.90
42803;DHT22;28447;48.682;9.022;2022-12-29T00:43:31;8.90;99.90
42803;DHT22;28447;48.682;9.022;2022-12-29T00:46:15;8.80;99.90
42803;DHT22;28447;48.682;9.022;2022-12-29T00:48:41;8.80;99.90
42803;DHT22;28447;48.682;9.022;2022-12-29T00:51:25;8.80;99.90
42803;DHT22;28447;48.682;9.022;2022-12-29T00:53:50;8.90;99.90
42803;DHT22;28447;48.682;9.022;2022-12-29T00:56:16;8.90;99.90
42803;DHT22;28447;48.682;9.022;2022-12-29T00:58:41;9.00;99.90
42803;DHT22;28447;48.682;9.022;2022-12-29T01:01:08;8.90;99.90
42803;DHT22;28447;48.682;9.022;2022-12-29T01:03:35;8.80;99.90
42803;DHT22;28447;48.682;9.022;2022-12-29T01:06:03;9.00;99.90
42803;DHT22;28447;48.682;9.022;2022-12-29T01:08:29;8.90;99.90
42803;DHT22;28447;48.682;9.022;2022-12-29T01:11:03;9.00;99.90
42803;DHT22;28447;48.682;9.022;2022-12-29T01:13:29;8.90;99.90
42803;DHT22;28447;48.682;9.022;2022-12-29T01:15:55;9.10;99.90
42803;DHT22;28447;48.682;9.022;2022-12-29T01:18:21;9.00;99.90
42803;DHT22;28447;48.682;9.022;2022-12-29T01:20:47;9.20;99.90
42803;DHT22;28447;48.682;9.022;2022-12-29T01:23:13;9.20;99.90
42803;DHT22;28447;48.682;9.022;2022-12-29T01:25:38;9.40;99.90
42803;DHT22;28447;48.682;9.022;2022-12-29T01:28:04;9.40;99.90
42803;DHT22;28447;48.682;9.022;2022-12-29T01:30:30;9.30;99.90
42803;DHT22;28447;48.682;9.022;2022-12-29T01:32:56;9.40;99.90
42803;DHT22;28447;48.682;9.022;2022-12-29T01:35:21;9.40;99.90
42803;DHT22;28447;48.682;9.022;2022-12-29T01:37:47;9.50;99.90
42803;DHT22;28447;48.682;9.022;2022-12-29T01:40:12;9.60;99.90
42803;DHT22;28447;48.682;9.022;2022-12-29T01:42:38;9.50;99.90
42803;DHT22;28447;48.682;9.022;2022-12-29T01:45:12;9.40;99.90
42803;DHT22;28447;48.682;9.022;2022-12-29T01:47:57;9.60;99.90
42803;DHT22;28447;48.682;9.022;2022-12-29T01:50:30;9.70;99.90
42803;DHT22;28447;48.682;9.022;2022-12-29T01:55:33;9.60;99.90
42803;DHT22;28447;48.682;9.022;2022-12-29T01:58:01;9.60;99.90
42803;DHT22;28447;48.682;9.022;2022-12-29T02:00:28;9.50;99.90
42803;DHT22;28447;48.682;9.022;2022-12-29T02:02:54;9.70;99.90
42803;DHT22;28447;48.682;9.022;2022-12-29T02:05:36;9.80;99.90
42803;DHT22;28447;48.682;9.022;2022-12-29T02:08:04;9.80;99.90
42803;DHT22;28447;48.682;9.022;2022-12-29T02:10:32;9.80;99.90
42803;DHT22;28447;48.682;9.022;2022-12-29T02:12:58;9.70;99.90
42803;DHT22;28447;48.682;9.022;2022-12-29T02:24:30;9.70;99.90
42803;DHT22;28447;48.682;9.022;2022-12-29T02:35:48;10.00;99.90
42803;DHT22;28447;48.682;9.022;2022-12-29T02:41:07;10.00;99.90
42803;DHT22;28447;48.682;9.022;2022-12-29T02:44:01;10.00;99.90
42803;DHT22;28447;48.682;9.022;2022-12-29T02:49:25;10.30;99.90
42803;DHT22;28447;48.682;9.022;2022-12-29T02:52:03;10.40;99.90
42803;DHT22;28447;48.682;9.022;2022-12-29T02:54:30;10.20;99.90
42803;DHT22;28447;48.682;9.022;2022-12-29T02:59:49;10.40;99.90
42803;DHT22;28447;48.682;9.022;2022-12-29T03:08:06;10.80;99.90
42803;DHT22;28447;48.682;9.022;2022-12-29T03:10:51;10.80;99.90
42803;DHT22;28447;48.682;9.022;2022-12-29T03:13:44;10.80;99.90
42803;DHT22;28447;48.682;9.022;2022-12-29T03:16:53;10.80;99.90
42803;DHT22;28447;48.682;9.022;2022-12-29T03:19:37;10.60;99.90
42803;DHT22;28447;48.682;9.022;2022-12-29T03:22:17;10.80;99.90
42803;DHT22;28447;48.682;9.022;2022-12-29T03:25:05;11.00;99.90
42803;DHT22;28447;48.682;9.022;2022-12-29T03:27:40;11.10;99.90
42803;DHT22;28447;48.682;9.022;2022-12-29T03:30:06;11.10;99.90
42803;DHT22;28447;48.682;9.022;2022-12-29T03:32:45;11.20;99.90
42803;DHT22;28447;48.682;9.022;2022-12-29T03:35:15;11.10;99.90
42803;DHT22;28447;48.682;9.022;2022-12-29T03:37:45;10.90;99.90
42803;DHT22;28447;48.682;9.022;2022-12-29T03:40:13;10.90;99.90
42803;DHT22;28447;48.682;9.022;2022-12-29T03:42:39;11.10;99.90
42803;DHT22;28447;48.682;9.022;2022-12-29T03:45:07;11.10;99.90
42803;DHT22;28447;48.682;9.022;2022-12-29T03:47:33;11.00;99.90
42803;DHT22;28447;48.682;9.022;2022-12-29T03:49:58;11.00;99.90
42803;DHT22;28447;48.682;9.022;2022-12-29T03:52:24;10.90;99.90
42803;DHT22;28447;48.682;9.022;2022-12-29T03:54:49;10.80;99.90
42803;DHT22;28447;48.682;9.022;2022-12-29T03:57:15;10.70;99.90
42803;DHT22;28447;48.682;9.022;2022-12-29T03:59:41;10.70;99.90
42803;DHT22;28447;48.682;9.022;2022-12-29T04:02:06;11.00;99.90
42803;DHT22;28447;48.682;9.022;2022-12-29T04:04:32;11.00;99.90
42803;DHT22;28447;48.682;9.022;2022-12-29T04:06:57;10.90;99.90
42803;DHT22;28447;48.682;9.022;2022-12-29T04:09:23;10.80;99.90
42803;DHT22;28447;48.682;9.022;2022-12-29T04:11:49;10.80;99.90
42803;DHT22;28447;48.682;9.022;2022-12-29T04:14:14;10.70;99.90
42803;DHT22;28447;48.682;9.022;2022-12-29T04:16:40;10.70;99.90
42803;DHT22;28447;48.682;9.022;2022-12-29T04:19:06;10.70;99.90
42803;DHT22;28447;48.682;9.022;2022-12-29T04:21:32;10.70;99.90
42803;DHT22;28447;48.682;9.022;2022-12-29T04:23:59;10.60;99.90
42803;DHT22;28447;48.682;9.022;2022-12-29T04:26:25;10.70;99.90
42803;DHT22;28447;48.682;9.022;2022-12-29T04:28:50;10.70;99.90
42803;DHT22;28447;48.682;9.022;2022-12-29T04:31:16;10.70;99.90
42803;DHT22;28447;48.682;9.022;2022-12-29T04:33:42;10.70;99.90
42803;DHT22;28447;48.682;9.022;2022-12-29T04:36:07;10.70;99.90
42803;DHT22;28447;48.682;9.022;2022-12-29T04:38:33;10.80;99.90
42803;DHT22;28447;48.682;9.022;2022-12-29T04:40:59;10.60;99.90
42803;DHT22;28447;48.682;9.022;2022-12-29T04:43:25;10.60;99.90
42803;DHT22;28447;48.682;9.022;2022-12-29T04:45:51;10.60;99.90
42803;DHT22;28447;48.682;9.022;2022-12-29T04:48:17;10.60;99.90
42803;DHT22;28447;48.682;9.022;2022-12-29T04:50:43;10.50;99.90
42803;DHT22;28447;48.682;9.022;2022-12-29T04:53:09;10.50;99.90
42803;DHT22;28447;48.682;9.022;2022-12-29T04:55:34;10.60;99.90
42803;DHT22;28447;48.682;9.022;2022-12-29T04:58:00;10.60;99.90
42803;DHT22;28447;48.682;9.022;2022-12-29T05:00:26;10.50;99.90
42803;DHT22;28447;48.682;9.022;2022-12-29T05:02:51;10.50;99.90
42803;DHT22;28447;48.682;9.022;2022-12-29T05:05:17;10.70;99.90
42803;DHT22;28447;48.682;9.022;2022-12-29T05:07:43;10.70;99.90
42803;DHT22;28447;48.682;9.022;2022-12-29T05:10:09;10.50;99.90
42803;DHT22;28447;48.682;9.022;2022-12-29T05:12:36;10.70;99.90
42803;DHT22;28447;48.682;9.022;2022-12-29T05:15:03;10.70;99.90
42803;DHT22;28447;48.682;9.022;2022-12-29T05:17:29;10.60;99.90
42803;DHT22;28447;48.682;9.022;2022-12-29T05:19:55;10.50;99.90
42803;DHT22;28447;48.682;9.022;2022-12-29T05:22:21;10.50;99.90
42803;DHT22;28447;48.682;9.022;2022-12-29T05:24:46;10.70;99.90
42803;DHT22;28447;48.682;9.022;2022-12-29T05:27:13;10.60;99.90
42803;DHT22;28447;48.682;9.022;2022-12-29T05:29:38;10.70;99.90
42803;DHT22;28447;48.682;9.022;2022-12-29T05:32:04;10.60;99.90
42803;DHT22;28447;48.682;9.022;2022-12-29T05:34:30;10.50;99.90
42803;DHT22;28447;48.682;9.022;2022-12-29T05:36:55;10.50;99.90
42803;DHT22;28447;48.682;9.022;2022-12-29T05:39:21;10.50;99.90
42803;DHT22;28447;48.682;9.022;2022-12-29T05:41:46;10.50;99.90
42803;DHT22;28447;48.682;9.022;2022-12-29T05:44:12;10.60;99.90
42803;DHT22;28447;48.682;9.022;2022-12-29T05:46:38;10.60;99.90
42803;DHT22;28447;48.682;9.022;2022-12-29T05:49:05;10.60;99.90
42803;DHT22;28447;48.682;9.022;2022-12-29T05:51:31;10.50;99.90
42803;DHT22;28447;48.682;9.022;2022-12-29T05:53:56;10.50;99.90
42803;DHT22;28447;48.682;9.022;2022-12-29T05:56:22;10.50;99.90
42803;DHT22;28447;48.682;9.022;2022-12-29T05:58:47;10.40;99.90
42803;DHT22;28447;48.682;9.022;2022-12-29T06:01:13;10.50;99.90
42803;DHT22;28447;48.682;9.022;2022-12-29T06:03:39;10.50;99.90
42803;DHT22;28447;48.682;9.022;2022-12-29T06:06:04;10.70;99.90
42803;DHT22;28447;48.682;9.022;2022-12-29T06:08:30;10.60;99.90
42803;DHT22;28447;48.682;9.022;2022-12-29T06:10:56;10.60;99.90
42803;DHT22;28447;48.682;9.022;2022-12-29T06:13:21;10.50;99.90
42803;DHT22;28447;48.682;9.022;2022-12-29T06:15:51;10.50;99.90
42803;DHT22;28447;48.682;9.022;2022-12-29T06:18:16;10.60;99.90
42803;DHT22;28447;48.682;9.022;2022-12-29T06:20:42;10.50;99.90
42803;DHT22;28447;48.682;9.022;2022-12-29T06:23:07;10.50;99.90
42803;DHT22;28447;48.682;9.022;2022-12-29T06:25:33;10.60;99.90
42803;DHT22;28447;48.682;9.022;2022-12-29T06:28:01;10.60;99.90
42803;DHT22;28447;48.682;9.022;2022-12-29T06:30:27;10.40;99.90
42803;DHT22;28447;48.682;9.022;2022-12-29T06:32:53;10.50;99.90
42803;DHT22;28447;48.682;9.022;2022-12-29T06:35:20;10.40;99.90
42803;DHT22;28447;48.682;9.022;2022-12-29T06:37:48;10.30;99.90
42803;DHT22;28447;48.682;9.022;2022-12-29T06:40:13;10.30;99.90
42803;DHT22;28447;48.682;9.022;2022-12-29T06:42:39;10.30;99.90
42803;DHT22;28447;48.682;9.022;2022-12-29T06:45:05;10.20;99.90
42803;DHT22;28447;48.682;9.022;2022-12-29T06:47:31;10.20;99.90
42803;DHT22;28447;48.682;9.022;2022-12-29T06:49:56;10.20;99.90
42803;DHT22;28447;48.682;9.022;2022-12-29T06:52:22;10.30;99.90
42803;DHT22;28447;48.682;9.022;2022-12-29T06:54:49;10.20;99.90
42803;DHT22;28447;48.682;9.022;2022-12-29T06:57:15;10.00;99.90
42803;DHT22;28447;48.682;9.022;2022-12-29T06:59:40;10.00;99.90
42803;DHT22;28447;48.682;9.022;2022-12-29T07:02:06;10.00;99.90
42803;DHT22;28447;48.682;9.022;2022-12-29T07:04:32;9.90;99.90
42803;DHT22;28447;48.682;9.022;2022-12-29T07:06:58;10.10;99.90
42803;DHT22;28447;48.682;9.022;2022-12-29T07:09:23;10.10;99.90
42803;DHT22;28447;48.682;9.022;2022-12-29T07:11:49;10.20;99.90
42803;DHT22;28447;48.682;9.022;2022-12-29T07:14:14;10.00;99.90
42803;DHT22;28447;48.682;9.022;2022-12-29T07:16:40;9.90;99.90
42803;DHT22;28447;48.682;9.022;2022-12-29T07:19:06;10.00;99.90
42803;DHT22;28447;48.682;9.022;2022-12-29T07:21:31;9.90;99.90
42803;DHT22;28447;48.682;9.022;2022-12-29T07:23:57;9.90;99.90
42803;DHT22;28447;48.682;9.022;2022-12-29T07:26:22;9.80;99.90
42803;DHT22;28447;48.682;9.022;2022-12-29T07:28:48;9.90;99.90
42803;DHT22;28447;48.682;9.022;2022-12-29T07:31:19;9.80;99.90
42803;DHT22;28447;48.682;9.022;2022-12-29T07:33:45;9.80;99.90
42803;DHT22;28447;48.682;9.022;2022-12-29T07:36:12;10.00;99.90
42803;DHT22;28447;48.682;9.022;2022-12-29T07:38:38;9.90;99.90
42803;DHT22;28447;48.682;9.022;2022-12-29T07:41:04;9.90;99.90
42803;DHT22;28447;48.682;9.022;2022-12-29T07:43:29;9.90;99.90
42803;DHT22;28447;48.682;9.022;2022-12-29T07:45:55;10.00;99.90
42803;DHT22;28447;48.682;9.022;2022-12-29T07:48:21;10.20;99.90
42803;DHT22;28447;48.682;9.022;2022-12-29T07:50:47;10.20;99.90
42803;DHT22;28447;48.682;9.022;2022-12-29T07:53:13;10.10;99.90
42803;DHT22;28447;48.682;9.022;2022-12-29T07:55:38;10.20;99.90
42803;DHT22;28447;48.682;9.022;2022-12-29T07:58:04;10.30;99.90
42803;DHT22;28447;48.682;9.022;2022-12-29T08:00:30;10.20;99.90
42803;DHT22;28447;48.682;9.022;2022-12-29T08:02:55;10.10;99.90
42803;DHT22;28447;48.682;9.022;2022-12-29T08:05:21;10.20;99.90
42803;DHT22;28447;48.682;9.022;2022-12-29T08:07:47;10.20;99.90
42803;DHT22;28447;48.682;9.022;2022-12-29T08:10:13;10.20;99.90
42803;DHT22;28447;48.682;9.022;2022-12-29T08:12:40;10.20;99.90
42803;DHT22;28447;48.682;9.022;2022-12-29T08:15:07;10.10;99.90
42803;DHT22;28447;48.682;9.022;2022-12-29T08:17:32;10.20;99.90
42803;DHT22;28447;48.682;9.022;2022-12-29T08:19:58;10.20;99.90
42803;DHT22;28447;48.682;9.022;2022-12-29T08:22:24;10.20;99.90
42803;DHT22;28447;48.682;9.022;2022-12-29T08:24:50;10.30;99.90
42803;DHT22;28447;48.682;9.022;2022-12-29T08:27:16;10.30;99.90
42803;DHT22;28447;48.682;9.022;2022-12-29T08:29:41;10.30;99.90
42803;DHT22;28447;48.682;9.022;2022-12-29T08:32:07;10.20;99.90
42803;DHT22;28447;48.682;9.022;2022-12-29T08:34:33;10.20;99.90
42803;DHT22;28447;48.682;9.022;2022-12-29T08:36:58;10.20;99.90
42803;DHT22;28447;48.682;9.022;2022-12-29T08:39:24;10.20;99.90
42803;DHT22;28447;48.682;9.022;2022-12-29T08:41:50;10.20;99.90
42803;DHT22;28447;48.682;9.022;2022-12-29T08:44:15;10.10;99.90
42803;DHT22;28447;48.682;9.022;2022-12-29T08:46:41;10.10;99.90
42803;DHT22;28447;48.682;9.022;2022-12-29T08:49:07;10.30;99.90
42803;DHT22;28447;48.682;9.022;2022-12-29T08:51:33;10.30;99.90
42803;DHT22;28447;48.682;9.022;2022-12-29T08:53:59;10.30;99.90
42803;DHT22;28447;48.682;9.022;2022-12-29T08:56:25;10.20;99.90
42803;DHT22;28447;48.682;9.022;2022-12-29T08:58:51;10.30;99.90
42803;DHT22;28447;48.682;9.022;2022-12-29T09:01:17;10.40;99.90
42803;DHT22;28447;48.682;9.022;2022-12-29T09:03:43;10.40;99.90
42803;DHT22;28447;48.682;9.022;2022-12-29T09:06:09;10.50;99.90
42803;DHT22;28447;48.682;9.022;2022-12-29T09:08:34;10.60;99.90
42803;DHT22;28447;48.682;9.022;2022-12-29T09:11:26;10.70;99.90
42803;DHT22;28447;48.682;9.022;2022-12-29T09:13:53;10.80;99.90
42803;DHT22;28447;48.682;9.022;2022-12-29T09:16:20;10.80;99.90
42803;DHT22;28447;48.682;9.022;2022-12-29T09:18:45;11.00;99.90
42803;DHT22;28447;48.682;9.022;2022-12-29T09:21:12;11.10;99.90
42803;DHT22;28447;48.682;9.022;2022-12-29T09:23:38;11.20;99.90
42803;DHT22;28447;48.682;9.022;2022-12-29T09:26:05;11.40;99.90
42803;DHT22;28447;48.682;9.022;2022-12-29T09:28:31;11.70;99.90
42803;DHT22;28447;48.682;9.022;2022-12-29T09:30:57;11.80;99.90
42803;DHT22;28447;48.682;9.022;2022-12-29T09:33:23;12.00;99.90
42803;DHT22;28447;48.682;9.022;2022-12-29T09:35:57;12.10;99.90
42803;DHT22;28447;48.682;9.022;2022-12-29T09:38:24;12.20;99.90
42803;DHT22;28447;48.682;9.022;2022-12-29T09:40:56;12.30;99.90
42803;DHT22;28447;48.682;9.022;2022-12-29T09:46:25;12.30;99.90
42803;DHT22;28447;48.682;9.022;2022-12-29T09:49:19;12.40;99.90
42803;DHT22;28447;48.682;9.022;2022-12-29T09:51:54;12.40;99.90
42803;DHT22;28447;48.682;9.022;2022-12-29T09:56:49;12.40;99.90
42803;DHT22;28447;48.682;9.022;2022-12-29T09:59:19;12.50;99.90
42803;DHT22;28447;48.682;9.022;2022-12-29T10:04:18;12.40;99.90
42803;DHT22;28447;48.682;9.022;2022-12-29T10:09:48;12.30;99.90
42803;DHT22;28447;48.682;9.022;2022-12-29T10:12:45;12.30;99.90
42803;DHT22;28447;48.682;9.022;2022-12-29T10:15:33;12.30;99.90
42803;DHT22;28447;48.682;9.022;2022-12-29T10:23:47;12.50;99.90
42803;DHT22;28447;48.682;9.022;2022-12-29T10:26:17;12.50;99.90
42803;DHT22;28447;48.682;9.022;2022-12-29T10:28:51;12.50;99.90
42803;DHT22;28447;48.682;9.022;2022-12-29T10:31:23;12.50;99.90
42803;DHT22;28447;48.682;9.022;2022-12-29T10:33:53;12.50;99.90
42803;DHT22;28447;48.682;9.022;2022-12-29T10:36:38;12.60;99.90
42803;DHT22;28447;48.682;9.022;2022-12-29T10:39:23;12.60;99.90
42803;DHT22;28447;48.682;9.022;2022-12-29T10:42:27;12.80;99.90
42803;DHT22;28447;48.682;9.022;2022-12-29T10:44:56;12.90;99.90
42803;DHT22;28447;48.682;9.022;2022-12-29T10:47:33;12.90;99.90
42803;DHT22;28447;48.682;9.022;2022-12-29T10:50:00;12.70;99.90
42803;DHT22;28447;48.682;9.022;2022-12-29T10:52:27;12.50;99.90
42803;DHT22;28447;48.682;9.022;2022-12-29T10:57:30;12.40;99.90
42803;DHT22;28447;48.682;9.022;2022-12-29T10:59:58;12.40;99.90
42803;DHT22;28447;48.682;9.022;2022-12-29T11:08:00;12.40;99.90
42803;DHT22;28447;48.682;9.022;2022-12-29T11:13:05;12.30;99.90
42803;DHT22;28447;48.682;9.022;2022-12-29T11:15:53;12.40;99.90
42803;DHT22;28447;48.682;9.022;2022-12-29T11:18:34;12.60;99.90
42803;DHT22;28447;48.682;9.022;2022-12-29T11:21:07;12.60;99.90
42803;DHT22;28447;48.682;9.022;2022-12-29T11:23:56;12.40;99.90
42803;DHT22;28447;48.682;9.022;2022-12-29T11:26:23;12.20;99.90
42803;DHT22;28447;48.682;9.022;2022-12-29T11:31:44;11.90;99.90
42803;DHT22;28447;48.682;9.022;2022-12-29T11:34:18;11.90;99.90
42803;DHT22;28447;48.682;9.022;2022-12-29T11:36:43;12.10;99.90
42803;DHT22;28447;48.682;9.022;2022-12-29T11:42:10;13.40;99.90
42803;DHT22;28447;48.682;9.022;2022-12-29T11:44:43;12.80;99.90
42803;DHT22;28447;48.682;9.022;2022-12-29T11:47:21;12.50;99.90
42803;DHT22;28447;48.682;9.022;2022-12-29T11:49:53;12.20;99.90
42803;DHT22;28447;48.682;9.022;2022-12-29T11:52:25;11.90;99.90
42803;DHT22;28447;48.682;9.022;2022-12-29T11:54:53;11.80;99.90
42803;DHT22;28447;48.682;9.022;2022-12-29T11:57:21;11.70;99.90
42803;DHT22;28447;48.682;9.022;2022-12-29T11:59:52;11.70;99.90
42803;DHT22;28447;48.682;9.022;2022-12-29T12:02:22;11.60;99.90
42803;DHT22;28447;48.682;9.022;2022-12-29T12:04:53;11.60;99.90
42803;DHT22;28447;48.682;9.022;2022-12-29T12:07:44;11.60;99.90
42803;DHT22;28447;48.682;9.022;2022-12-29T12:10:20;11.60;99.90
42803;DHT22;28447;48.682;9.022;2022-12-29T12:12:53;11.50;99.90
42803;DHT22;28447;48.682;9.022;2022-12-29T12:15:30;11.50;99.90
42803;DHT22;28447;48.682;9.022;2022-12-29T12:18:08;11.50;99.90
42803;DHT22;28447;48.682;9.022;2022-12-29T12:26:16;11.50;99.90
42803;DHT22;28447;48.682;9.022;2022-12-29T12:29:09;11.30;99.90
42803;DHT22;28447;48.682;9.022;2022-12-29T12:34:41;10.90;99.90
42803;DHT22;28447;48.682;9.022;2022-12-29T12:37:19;10.70;99.90
42803;DHT22;28447;48.682;9.022;2022-12-29T12:46:03;10.80;99.90
42803;DHT22;28447;48.682;9.022;2022-12-29T12:49:11;10.90;99.90
42803;DHT22;28447;48.682;9.022;2022-12-29T13:02:36;14.60;99.90
42803;DHT22;28447;48.682;9.022;2022-12-29T13:22:01;13.60;99.90
42803;DHT22;28447;48.682;9.022;2022-12-29T13:27:17;12.00;99.90
42803;DHT22;28447;48.682;9.022;2022-12-29T13:29:48;11.80;99.90
42803;DHT22;28447;48.682;9.022;2022-12-29T13:35:18;11.50;99.90
42803;DHT22;28447;48.682;9.022;2022-12-29T13:38:07;11.30;99.90
42803;DHT22;28447;48.682;9.022;2022-12-29T13:40:38;11.20;99.90
42803;DHT22;28447;48.682;9.022;2022-12-29T13:43:05;11.20;99.90
42803;DHT22;28447;48.682;9.022;2022-12-29T13:45:32;11.30;99.90
42803;DHT22;28447;48.682;9.022;2022-12-29T13:48:19;11.10;99.90
42803;DHT22;28447;48.682;9.022;2022-12-29T13:50:57;11.10;99.90
42803;DHT22;28447;48.682;9.022;2022-12-29T13:53:30;11.10;99.90
42803;DHT22;28447;48.682;9.022;2022-12-29T13:56:24;11.00;99.90
42803;DHT22;28447;48.682;9.022;2022-12-29T13:58:58;11.00;99.90
42803;DHT22;28447;48.682;9.022;2022-12-29T14:03:58;11.80;99.90
42803;DHT22;28447;48.682;9.022;2022-12-29T14:09:02;11.30;99.90
42803;DHT22;28447;48.682;9.022;2022-12-29T14:11:39;11.20;99.90
42803;DHT22;28447;48.682;9.022;2022-12-29T14:14:13;11.10;99.90
42803;DHT22;28447;48.682;9.022;2022-12-29T14:16:39;11.10;99.90
42803;DHT22;28447;48.682;9.022;2022-12-29T14:19:24;11.20;99.90
42803;DHT22;28447;48.682;9.022;2022-12-29T14:21:54;11.30;99.90
42803;DHT22;28447;48.682;9.022;2022-12-29T14:26:58;13.40;99.90
42803;DHT22;28447;48.682;9.022;2022-12-29T14:31:50;13.60;99.90
42803;DHT22;28447;48.682;9.022;2022-12-29T14:36:57;12.50;99.90
42803;DHT22;28447;48.682;9.022;2022-12-29T14:39:34;12.00;99.90
42803;DHT22;28447;48.682;9.022;2022-12-29T14:44:50;11.50;99.90
42803;DHT22;28447;48.682;9.022;2022-12-29T14:47:41;11.50;99.90
42803;DHT22;28447;48.682;9.022;2022-12-29T14:50:12;11.40;99.90
42803;DHT22;28447;48.682;9.022;2022-12-29T14:52:48;11.30;99.90
42803;DHT22;28447;48.682;9.022;2022-12-29T14:57:45;11.10;99.90
42803;DHT22;28447;48.682;9.022;2022-12-29T15:00:27;11.00;99.90
42803;DHT22;28447;48.682;9.022;2022-12-29T15:03:04;11.00;99.90
42803;DHT22;28447;48.682;9.022;2022-12-29T15:07:58;11.00;99.90
42803;DHT22;28447;48.682;9.022;2022-12-29T15:10:26;11.00;99.90
42803;DHT22;28447;48.682;9.022;2022-12-29T15:13:04;11.00;99.90
42803;DHT22;28447;48.682;9.022;2022-12-29T15:15:37;10.90;99.90
42803;DHT22;28447;48.682;9.022;2022-12-29T15:18:32;10.90;99.90
42803;DHT22;28447;48.682;9.022;2022-12-29T15:21:05;10.90;99.90
42803;DHT22;28447;48.682;9.022;2022-12-29T15:23:33;10.90;99.90
42803;DHT22;28447;48.682;9.022;2022-12-29T15:26:04;10.90;99.90
42803;DHT22;28447;48.682;9.022;2022-12-29T15:31:12;10.90;99.90
42803;DHT22;28447;48.682;9.022;2022-12-29T15:33:44;10.90;99.90
42803;DHT22;28447;48.682;9.022;2022-12-29T15:36:13;10.80;99.90
42803;DHT22;28447;48.682;9.022;2022-12-29T15:38:39;10.90;99.90
42803;DHT22;28447;48.682;9.022;2022-12-29T15:41:11;10.80;99.90
42803;DHT22;28447;48.682;9.022;2022-12-29T15:43:46;10.80;99.90
42803;DHT22;28447;48.682;9.022;2022-12-29T15:46:14;10.80;99.90
42803;DHT22;28447;48.682;9.022;2022-12-29T15:48:40;10.80;99.90
42803;DHT22;28447;48.682;9.022;2022-12-29T15:51:30;10.70;99.90
42803;DHT22;28447;48.682;9.022;2022-12-29T15:53:58;10.70;99.90
42803;DHT22;28447;48.682;9.022;2022-12-29T15:56:28;10.80;99.90
42803;DHT22;28447;48.682;9.022;2022-12-29T15:58:54;10.90;99.90
42803;DHT22;28447;48.682;9.022;2022-12-29T16:01:34;10.80;99.90
42803;DHT22;28447;48.682;9.022;2022-12-29T16:04:04;10.80;99.90
42803;DHT22;28447;48.682;9.022;2022-12-29T16:06:36;10.70;99.90
42803;DHT22;28447;48.682;9.022;2022-12-29T16:09:06;10.70;99.90
42803;DHT22;28447;48.682;9.022;2022-12-29T16:11:38;10.60;99.90
42803;DHT22;28447;48.682;9.022;2022-12-29T16:14:29;10.10;99.90
42803;DHT22;28447;48.682;9.022;2022-12-29T16:16:57;9.80;99.90
42803;DHT22;28447;48.682;9.022;2022-12-29T16:19:28;9.60;99.90
42803;DHT22;28447;48.682;9.022;2022-12-29T16:21:58;9.30;99.90
42803;DHT22;28447;48.682;9.022;2022-12-29T16:24:26;9.20;99.90
42803;DHT22;28447;48.682;9.022;2022-12-29T16:29:39;9.00;99.90
42803;DHT22;28447;48.682;9.022;2022-12-29T16:32:26;9.10;99.90
42803;DHT22;28447;48.682;9.022;2022-12-29T16:37:36;9.00;99.90
42803;DHT22;28447;48.682;9.022;2022-12-29T16:42:55;9.00;99.90
42803;DHT22;28447;48.682;9.022;2022-12-29T16:50:40;8.90;99.90
42803;DHT22;28447;48.682;9.022;2022-12-29T16:53:29;8.90;99.90
42803;DHT22;28447;48.682;9.022;2022-12-29T16:56:03;8.90;99.90
42803;DHT22;28447;48.682;9.022;2022-12-29T16:58:30;8.80;99.90
42803;DHT22;28447;48.682;9.022;2022-12-29T17:01:00;8.80;99.90
42803;DHT22;28447;48.682;9.022;2022-12-29T17:03:34;8.80;99.90
42803;DHT22;28447;48.682;9.022;2022-12-29T17:06:00;8.60;99.90
42803;DHT22;28447;48.682;9.022;2022-12-29T17:08:27;8.60;99.90
42803;DHT22;28447;48.682;9.022;2022-12-29T17:10:55;8.50;99.90
42803;DHT22;28447;48.682;9.022;2022-12-29T17:13:39;8.50;99.90
42803;DHT22;28447;48.682;9.022;2022-12-29T17:16:06;8.40;99.90
42803;DHT22;28447;48.682;9.022;2022-12-29T17:18:33;8.50;99.90
42803;DHT22;28447;48.682;9.022;2022-12-29T17:20:59;8.50;99.90
42803;DHT22;28447;48.682;9.022;2022-12-29T17:23:25;8.50;99.90
42803;DHT22;28447;48.682;9.022;2022-12-29T17:25:52;8.50;99.90
42803;DHT22;28447;48.682;9.022;2022-12-29T17:28:25;8.50;99.90
42803;DHT22;28447;48.682;9.022;2022-12-29T17:31:00;8.50;99.90
42803;DHT22;28447;48.682;9.022;2022-12-29T17:33:27;8.50;99.90
42803;DHT22;28447;48.682;9.022;2022-12-29T17:35:54;8.50;99.90
42803;DHT22;28447;48.682;9.022;2022-12-29T17:38:24;8.50;99.90
42803;DHT22;28447;48.682;9.022;2022-12-29T17:40:52;8.40;99.90
42803;DHT22;28447;48.682;9.022;2022-12-29T17:43:18;8.50;99.90
42803;DHT22;28447;48.682;9.022;2022-12-29T17:45:47;8.50;99.90
42803;DHT22;28447;48.682;9.022;2022-12-29T17:48:16;8.50;99.90
42803;DHT22;28447;48.682;9.022;2022-12-29T17:50:42;8.50;99.90
42803;DHT22;28447;48.682;9.022;2022-12-29T17:53:28;8.40;99.90
42803;DHT22;28447;48.682;9.022;2022-12-29T17:55:54;8.40;99.90
42803;DHT22;28447;48.682;9.022;2022-12-29T17:58:22;8.40;99.90
42803;DHT22;28447;48.682;9.022;2022-12-29T18:00:51;8.30;99.90
42803;DHT22;28447;48.682;9.022;2022-12-29T18:03:21;8.30;99.90
42803;DHT22;28447;48.682;9.022;2022-12-29T18:05:47;8.30;99.90
42803;DHT22;28447;48.682;9.022;2022-12-29T18:08:14;8.30;99.90
42803;DHT22;28447;48.682;9.022;2022-12-29T18:10:40;8.30;99.90
42803;DHT22;28447;48.682;9.022;2022-12-29T18:13:08;8.30;99.90
42803;DHT22;28447;48.682;9.022;2022-12-29T18:15:39;8.30;99.90
42803;DHT22;28447;48.682;9.022;2022-12-29T18:18:13;8.30;99.90
42803;DHT22;28447;48.682;9.022;2022-12-29T18:20:41;8.30;99.90
42803;DHT22;28447;48.682;9.022;2022-12-29T18:23:19;8.30;99.90
42803;DHT22;28447;48.682;9.022;2022-12-29T18:28:14;8.30;99.90
42803;DHT22;28447;48.682;9.022;2022-12-29T18:30:39;8.30;99.90